Time;durP1;ratioP1;P1;durP2;ratioP2;P2;SDS_P1;SDS_P2;PMS_P1;PMS_P2;Temp;Humidity;BMP_temperature;BMP_pressure;BME280_temperature;BME280_humidity;BME280_pressure;Samples;Min_cycle;Max_cycle;Signal;HPM_P1;HPM_P2
2022/12/24 00:01:38;;;;;;;3.20;1.57;;;;;;;;;;5046559;28;20183;-83
2022/12/24 00:04:03;;;;;;;4.33;2.13;;;;;;;;;;5044552;28;20215;-83
2022/12/24 00:06:29;;;;;;;4.37;2.00;;;;;;;;;;5040586;28;20480;-83
2022/12/24 00:08:54;;;;;;;5.50;1.93;;;;;;;;;;5047578;28;20252;-83
2022/12/24 00:11:19;;;;;;;6.77;2.17;;;;;;;;;;5041545;28;20181;-83
2022/12/24 00:13:45;;;;;;;4.37;2.30;;;;;;;;;;5046136;28;20171;-83
2022/12/24 00:16:10;;;;;;;4.73;2.13;;;;;;;;;;5046268;28;20198;-84
2022/12/24 00:18:35;;;;;;;11.47;2.30;;;;;;;;;;5046967;28;20205;-83
2022/12/24 00:21:02;;;;;;;8.67;2.30;;;;;;;;;;5045597;28;20170;-83
2022/12/24 00:23:28;;;;;;;6.37;2.37;;;;;;;;;;5043583;28;20219;-84
2022/12/24 00:25:53;;;;;;;5.80;1.90;;;;;;;;;;5045214;28;20249;-83
2022/12/24 00:28:18;;;;;;;7.63;2.93;;;;;;;;;;5044821;28;20244;-83
2022/12/24 00:30:44;;;;;;;5.73;2.43;;;;;;;;;;5048271;28;20270;-83
2022/12/24 00:33:09;;;;;;;6.60;2.87;;;;;;;;;;5044349;28;20209;-83
2022/12/24 00:35:35;;;;;;;4.70;1.80;;;;;;;;;;5039367;28;20222;-83
2022/12/24 00:38:02;;;;;;;6.83;2.53;;;;;;;;;;5008195;28;20178;-83
2022/12/24 00:40:28;;;;;;;9.63;2.80;;;;;;;;;;5009200;28;20186;-83
2022/12/24 00:42:53;;;;;;;8.07;2.30;;;;;;;;;;5010521;28;20181;-84
2022/12/24 00:45:18;;;;;;;5.97;2.20;;;;;;;;;;5010077;28;20185;-83
2022/12/24 00:47:44;;;;;;;7.17;3.07;;;;;;;;;;5007988;28;20241;-83
2022/12/24 00:50:09;;;;;;;10.77;2.90;;;;;;;;;;5008612;28;20181;-83
2022/12/24 00:52:34;;;;;;;11.90;3.30;;;;;;;;;;5009515;28;20182;-83
2022/12/24 00:55:00;;;;;;;10.33;3.10;;;;;;;;;;5006528;28;20217;-83
2022/12/24 00:57:25;;;;;;;4.87;2.10;;;;;;;;;;5002020;28;20189;-83
2022/12/24 00:59:50;;;;;;;9.27;2.63;;;;;;;;;;5005232;28;20190;-83
2022/12/24 01:02:15;;;;;;;6.27;2.60;;;;;;;;;;5009969;28;20233;-83
2022/12/24 01:07:25;;;;;;;4.80;2.40;;;;;;;;;;5031416;28;20317;-84
2022/12/24 01:09:50;;;;;;;6.90;3.10;;;;;;;;;;5009736;28;20204;-83
2022/12/24 01:12:15;;;;;;;4.33;2.30;;;;;;;;;;5015159;28;20187;-83
2022/12/24 01:14:41;;;;;;;4.83;2.30;;;;;;;;;;5014175;28;20215;-84
2022/12/24 01:17:06;;;;;;;7.43;2.67;;;;;;;;;;5013256;28;20182;-83
2022/12/24 01:19:32;;;;;;;4.43;1.73;;;;;;;;;;5011715;28;20194;-83
2022/12/24 01:21:57;;;;;;;12.07;3.27;;;;;;;;;;5011916;28;20501;-83
2022/12/24 01:24:22;;;;;;;4.80;1.63;;;;;;;;;;5011431;28;20212;-84
2022/12/24 01:26:47;;;;;;;9.47;2.43;;;;;;;;;;5013727;28;20178;-83
2022/12/24 01:29:16;;;;;;;9.97;2.73;;;;;;;;;;5012222;28;20222;-83
2022/12/24 01:31:41;;;;;;;6.40;2.30;;;;;;;;;;5010897;28;20246;-84
2022/12/24 01:34:06;;;;;;;10.43;2.60;;;;;;;;;;5032679;28;20247;-83
2022/12/24 01:36:31;;;;;;;7.37;2.33;;;;;;;;;;5030378;28;20214;-83
2022/12/24 01:38:56;;;;;;;7.23;2.33;;;;;;;;;;5049168;28;20185;-83
2022/12/24 01:44:20;;;;;;;8.13;2.30;;;;;;;;;;5051205;28;20274;-83
2022/12/24 01:46:48;;;;;;;5.77;2.40;;;;;;;;;;5047055;28;20204;-82
2022/12/24 01:49:14;;;;;;;10.10;2.83;;;;;;;;;;5049446;28;20202;-83
2022/12/24 01:51:45;;;;;;;8.50;2.40;;;;;;;;;;5050043;28;20179;-83
2022/12/24 01:54:12;;;;;;;11.40;2.70;;;;;;;;;;5051429;28;20182;-83
2022/12/24 01:56:41;;;;;;;5.27;2.57;;;;;;;;;;5045317;28;20185;-83
2022/12/24 01:59:09;;;;;;;6.97;2.80;;;;;;;;;;5039743;28;20252;-83
2022/12/24 02:01:34;;;;;;;9.70;2.63;;;;;;;;;;5044869;28;20189;-83
2022/12/24 02:04:03;;;;;;;14.97;2.67;;;;;;;;;;5068025;28;20239;-83
2022/12/24 02:06:29;;;;;;;10.87;3.40;;;;;;;;;;5050125;28;20182;-83
2022/12/24 02:08:54;;;;;;;12.53;3.40;;;;;;;;;;5045582;28;20214;-83
2022/12/24 02:11:20;;;;;;;9.10;2.77;;;;;;;;;;5048754;28;20174;-83
2022/12/24 02:13:48;;;;;;;7.60;2.63;;;;;;;;;;5045966;28;20183;-83
2022/12/24 02:16:20;;;;;;;7.43;2.90;;;;;;;;;;5048474;28;20173;-83
2022/12/24 02:18:54;;;;;;;8.80;4.13;;;;;;;;;;5047370;28;20277;-82
2022/12/24 02:21:25;;;;;;;7.73;2.73;;;;;;;;;;5042596;28;20185;-83
2022/12/24 02:23:53;;;;;;;9.57;3.30;;;;;;;;;;5041956;28;20216;-82
2022/12/24 02:26:21;;;;;;;12.00;2.90;;;;;;;;;;5048483;28;20193;-83
2022/12/24 02:29:05;;;;;;;8.87;2.57;;;;;;;;;;5047458;28;20247;-83
2022/12/24 02:31:42;;;;;;;4.63;2.43;;;;;;;;;;5048555;28;20178;-83
2022/12/24 02:34:22;;;;;;;7.73;2.53;;;;;;;;;;5064416;28;20177;-83
2022/12/24 02:36:51;;;;;;;9.90;4.07;;;;;;;;;;5046617;28;20229;-83
2022/12/24 02:39:19;;;;;;;11.03;3.77;;;;;;;;;;5049483;28;20258;-83
2022/12/24 02:42:21;;;;;;;14.60;3.73;;;;;;;;;;5044549;28;20187;-83
2022/12/24 02:44:54;;;;;;;10.97;2.97;;;;;;;;;;5046693;28;20194;-83
2022/12/24 02:47:21;;;;;;;10.00;3.13;;;;;;;;;;5047760;28;20182;-83
2022/12/24 02:49:47;;;;;;;5.67;2.63;;;;;;;;;;5049674;28;20185;-83
2022/12/24 02:52:27;;;;;;;11.03;3.80;;;;;;;;;;5042596;28;20272;-83
2022/12/24 02:54:53;;;;;;;15.70;3.10;;;;;;;;;;5063626;28;20224;-83
2022/12/24 02:57:35;;;;;;;16.00;4.07;;;;;;;;;;5046917;28;20185;-83
2022/12/24 03:00:03;;;;;;;9.27;3.10;;;;;;;;;;5045129;28;20249;-83
2022/12/24 03:02:34;;;;;;;8.33;2.83;;;;;;;;;;5050093;28;20241;-83
2022/12/24 03:05:06;;;;;;;7.57;2.73;;;;;;;;;;5049481;28;20186;-83
2022/12/24 03:07:42;;;;;;;13.23;2.90;;;;;;;;;;5049972;28;20240;-83
2022/12/24 03:10:16;;;;;;;10.20;2.73;;;;;;;;;;5044696;28;20182;-83
2022/12/24 03:12:43;;;;;;;10.40;3.37;;;;;;;;;;5044327;28;20243;-83
2022/12/24 03:15:10;;;;;;;8.70;2.87;;;;;;;;;;5047035;28;20314;-83
2022/12/24 03:17:36;;;;;;;11.27;2.63;;;;;;;;;;5044030;28;20208;-83
2022/12/24 03:20:02;;;;;;;9.93;3.17;;;;;;;;;;5043661;28;20269;-83
2022/12/24 03:22:28;;;;;;;9.37;2.90;;;;;;;;;;5050137;28;20277;-83
2022/12/24 03:24:54;;;;;;;12.03;4.17;;;;;;;;;;5048100;28;20186;-83
2022/12/24 03:27:19;;;;;;;7.87;3.13;;;;;;;;;;5042552;28;20226;-83
2022/12/24 03:29:45;;;;;;;15.20;3.20;;;;;;;;;;5046913;28;20188;-83
2022/12/24 03:32:10;;;;;;;16.90;3.43;;;;;;;;;;5044435;28;20184;-83
2022/12/24 03:34:36;;;;;;;10.90;2.90;;;;;;;;;;5046824;28;20178;-83
2022/12/24 03:37:01;;;;;;;9.80;3.53;;;;;;;;;;5038664;28;20226;-83
2022/12/24 03:39:26;;;;;;;8.97;3.47;;;;;;;;;;5043801;28;20190;-83
2022/12/24 03:41:51;;;;;;;11.23;3.23;;;;;;;;;;5046224;28;20279;-83
2022/12/24 03:44:16;;;;;;;10.10;3.20;;;;;;;;;;5048373;28;20200;-83
2022/12/24 03:46:42;;;;;;;6.60;2.63;;;;;;;;;;5043226;28;20179;-83
2022/12/24 03:49:07;;;;;;;6.63;2.67;;;;;;;;;;5047759;28;20284;-83
2022/12/24 03:51:32;;;;;;;9.57;3.23;;;;;;;;;;5042762;28;20260;-83
2022/12/24 03:53:58;;;;;;;9.50;2.43;;;;;;;;;;5047057;28;20176;-83
2022/12/24 03:56:24;;;;;;;9.53;3.10;;;;;;;;;;5047410;28;20181;-83
2022/12/24 03:58:49;;;;;;;15.90;4.60;;;;;;;;;;5042011;28;20205;-83
2022/12/24 04:01:15;;;;;;;10.87;3.33;;;;;;;;;;5045418;28;20190;-83
2022/12/24 04:03:40;;;;;;;8.13;2.90;;;;;;;;;;5045634;28;20182;-83
2022/12/24 04:06:07;;;;;;;11.57;3.07;;;;;;;;;;5045636;28;20170;-83
2022/12/24 04:08:33;;;;;;;11.10;2.90;;;;;;;;;;5044963;28;20349;-83
2022/12/24 04:10:58;;;;;;;15.00;3.23;;;;;;;;;;5046005;28;20264;-83
2022/12/24 04:13:23;;;;;;;9.03;3.30;;;;;;;;;;5042791;28;20247;-83
2022/12/24 04:15:57;;;;;;;8.27;2.90;;;;;;;;;;5045138;28;20185;-83
2022/12/24 04:18:23;;;;;;;10.73;3.77;;;;;;;;;;5048748;28;20198;-83
2022/12/24 04:20:48;;;;;;;13.73;3.63;;;;;;;;;;5042868;28;20200;-83
2022/12/24 04:23:13;;;;;;;5.87;2.73;;;;;;;;;;5042435;28;20188;-83
2022/12/24 04:25:38;;;;;;;7.97;2.60;;;;;;;;;;5047373;28;20235;-83
2022/12/24 04:28:03;;;;;;;6.70;3.00;;;;;;;;;;5046046;28;20201;-82
2022/12/24 04:30:29;;;;;;;10.27;3.17;;;;;;;;;;5048395;28;20174;-83
2022/12/24 04:32:54;;;;;;;12.33;3.60;;;;;;;;;;5046431;28;20179;-83
2022/12/24 04:35:21;;;;;;;6.63;2.67;;;;;;;;;;5044184;28;20190;-83
2022/12/24 04:37:47;;;;;;;9.57;2.73;;;;;;;;;;5009605;28;20187;-83
2022/12/24 04:40:12;;;;;;;12.00;3.10;;;;;;;;;;5006844;28;20187;-83
2022/12/24 04:42:37;;;;;;;10.40;2.63;;;;;;;;;;5011832;28;20478;-83
2022/12/24 04:45:03;;;;;;;11.23;2.57;;;;;;;;;;5010739;28;20280;-83
2022/12/24 04:47:28;;;;;;;9.43;2.63;;;;;;;;;;5028769;28;20172;-83
2022/12/24 04:49:53;;;;;;;6.90;3.30;;;;;;;;;;5029347;28;20178;-83
2022/12/24 04:52:18;;;;;;;9.60;2.73;;;;;;;;;;5011652;28;20182;-83
2022/12/24 04:54:43;;;;;;;8.87;3.30;;;;;;;;;;5013963;28;20212;-83
2022/12/24 04:57:09;;;;;;;10.00;2.70;;;;;;;;;;5013465;28;20177;-83
2022/12/24 04:59:34;;;;;;;8.70;2.47;;;;;;;;;;5010183;28;20180;-83
2022/12/24 05:01:59;;;;;;;9.03;3.60;;;;;;;;;;5012010;28;20179;-83
2022/12/24 05:04:24;;;;;;;10.00;3.00;;;;;;;;;;5005795;28;20191;-83
2022/12/24 05:06:49;;;;;;;8.77;2.87;;;;;;;;;;5010855;28;20184;-83
2022/12/24 05:09:15;;;;;;;9.97;3.27;;;;;;;;;;5009663;28;20202;-83
2022/12/24 05:11:40;;;;;;;12.77;3.70;;;;;;;;;;5007305;28;20263;-83
2022/12/24 05:14:05;;;;;;;11.17;3.10;;;;;;;;;;5009631;28;20265;-83
2022/12/24 05:16:30;;;;;;;10.33;2.80;;;;;;;;;;5009171;28;20269;-83
2022/12/24 05:18:56;;;;;;;6.83;3.37;;;;;;;;;;5008703;28;20285;-82
2022/12/24 05:21:22;;;;;;;14.60;3.30;;;;;;;;;;5005670;28;20187;-83
2022/12/24 05:26:34;;;;;;;9.87;3.17;;;;;;;;;;5026137;28;20286;-83
2022/12/24 05:29:00;;;;;;;11.00;3.40;;;;;;;;;;5032635;28;20292;-83
2022/12/24 05:31:26;;;;;;;12.63;2.70;;;;;;;;;;5027872;28;20283;-83
2022/12/24 05:33:53;;;;;;;9.67;3.00;;;;;;;;;;5012978;28;20245;-83
2022/12/24 05:36:19;;;;;;;12.13;3.13;;;;;;;;;;5024187;28;20241;-83
2022/12/24 05:38:44;;;;;;;13.07;3.60;;;;;;;;;;5044570;28;20189;-83
2022/12/24 05:41:09;;;;;;;8.07;3.03;;;;;;;;;;5045902;28;20178;-83
2022/12/24 05:43:38;;;;;;;12.00;2.57;;;;;;;;;;5038767;28;20178;-83
2022/12/24 05:46:04;;;;;;;9.13;2.80;;;;;;;;;;5046261;28;20203;-83
2022/12/24 05:48:30;;;;;;;10.57;3.57;;;;;;;;;;5040761;28;20195;-83
2022/12/24 05:50:55;;;;;;;8.93;3.27;;;;;;;;;;5043591;28;20228;-83
2022/12/24 05:53:21;;;;;;;12.73;4.23;;;;;;;;;;5045723;28;20170;-83
2022/12/24 05:55:47;;;;;;;8.57;2.87;;;;;;;;;;5047330;28;20205;-83
2022/12/24 05:58:12;;;;;;;7.77;4.50;;;;;;;;;;5046145;28;20188;-83
2022/12/24 06:00:37;;;;;;;6.30;2.63;;;;;;;;;;5050145;28;20182;-83
2022/12/24 06:03:03;;;;;;;8.63;3.00;;;;;;;;;;5049798;28;20181;-83
2022/12/24 06:05:28;;;;;;;11.77;3.37;;;;;;;;;;5046291;28;20183;-83
2022/12/24 06:07:53;;;;;;;9.77;2.97;;;;;;;;;;5043540;28;20206;-83
2022/12/24 06:10:18;;;;;;;7.53;3.03;;;;;;;;;;5054069;28;20176;-83
2022/12/24 06:12:44;;;;;;;9.17;2.80;;;;;;;;;;5044458;28;20202;-83
2022/12/24 06:15:09;;;;;;;12.03;3.40;;;;;;;;;;5050730;28;20170;-83
2022/12/24 06:17:34;;;;;;;8.33;3.40;;;;;;;;;;5049497;28;20292;-83
2022/12/24 06:20:00;;;;;;;12.47;2.90;;;;;;;;;;5050777;28;20205;-83
2022/12/24 06:22:25;;;;;;;13.47;3.03;;;;;;;;;;5044256;28;20184;-83
2022/12/24 06:24:50;;;;;;;8.10;2.97;;;;;;;;;;5050218;28;20481;-83
2022/12/24 06:27:15;;;;;;;9.30;3.50;;;;;;;;;;5048402;28;20212;-83
2022/12/24 06:29:41;;;;;;;12.03;3.43;;;;;;;;;;5046849;28;20252;-83
2022/12/24 06:32:06;;;;;;;10.33;2.87;;;;;;;;;;5047966;28;20381;-83
2022/12/24 06:34:31;;;;;;;9.07;2.83;;;;;;;;;;5050192;28;20277;-83
2022/12/24 06:36:56;;;;;;;5.57;2.43;;;;;;;;;;5042932;28;20228;-83
2022/12/24 06:39:21;;;;;;;11.73;2.67;;;;;;;;;;5044103;28;20186;-83
2022/12/24 06:41:47;;;;;;;11.70;2.73;;;;;;;;;;5043734;28;20184;-83
2022/12/24 06:44:12;;;;;;;10.47;2.80;;;;;;;;;;5043642;28;20271;-83
2022/12/24 06:46:37;;;;;;;7.43;2.90;;;;;;;;;;5046970;28;20217;-82
2022/12/24 06:49:02;;;;;;;13.03;3.43;;;;;;;;;;5047685;28;20244;-83
2022/12/24 06:51:28;;;;;;;9.73;3.20;;;;;;;;;;5059873;28;20171;-83
2022/12/24 06:53:53;;;;;;;11.37;3.50;;;;;;;;;;5051658;28;20186;-82
2022/12/24 06:56:19;;;;;;;12.83;3.40;;;;;;;;;;5044691;28;20181;-83
2022/12/24 06:58:45;;;;;;;10.40;3.70;;;;;;;;;;5045840;28;20185;-83
2022/12/24 07:01:12;;;;;;;9.30;3.23;;;;;;;;;;5048438;28;20175;-83
2022/12/24 07:03:37;;;;;;;9.50;3.17;;;;;;;;;;5042225;28;20182;-83
2022/12/24 07:06:02;;;;;;;10.53;4.37;;;;;;;;;;5048375;28;20178;-83
2022/12/24 07:08:27;;;;;;;9.33;4.07;;;;;;;;;;5045941;28;20196;-83
2022/12/24 07:10:53;;;;;;;15.60;4.10;;;;;;;;;;5047893;28;20198;-82
2022/12/24 07:13:18;;;;;;;12.90;3.97;;;;;;;;;;5043172;28;20465;-83
2022/12/24 07:15:44;;;;;;;13.77;3.47;;;;;;;;;;5049186;28;20178;-83
2022/12/24 07:18:09;;;;;;;12.47;3.37;;;;;;;;;;5043276;28;20207;-83
2022/12/24 07:20:34;;;;;;;10.93;4.20;;;;;;;;;;5041188;28;20179;-83
2022/12/24 07:22:59;;;;;;;7.87;3.10;;;;;;;;;;5042059;28;20266;-82
2022/12/24 07:25:25;;;;;;;13.30;3.40;;;;;;;;;;5046418;28;20186;-83
2022/12/24 07:27:50;;;;;;;8.10;3.10;;;;;;;;;;5050346;28;20230;-83
2022/12/24 07:30:15;;;;;;;12.43;4.00;;;;;;;;;;5043155;28;20205;-83
2022/12/24 07:32:41;;;;;;;7.87;3.73;;;;;;;;;;5048691;28;20272;-83
2022/12/24 07:35:06;;;;;;;11.47;3.33;;;;;;;;;;5048267;28;20184;-83
2022/12/24 07:37:31;;;;;;;7.00;2.90;;;;;;;;;;5044788;28;20224;-83
2022/12/24 07:39:57;;;;;;;12.13;3.93;;;;;;;;;;5044257;28;20193;-83
2022/12/24 07:42:23;;;;;;;11.30;2.80;;;;;;;;;;5045299;28;20180;-82
2022/12/24 07:44:48;;;;;;;9.10;3.20;;;;;;;;;;5048659;28;20193;-82
2022/12/24 07:47:13;;;;;;;11.63;3.57;;;;;;;;;;5044405;28;20177;-83
2022/12/24 07:49:38;;;;;;;16.67;3.40;;;;;;;;;;5046638;28;20217;-83
2022/12/24 07:52:04;;;;;;;7.80;3.37;;;;;;;;;;5049649;28;20183;-82
2022/12/24 07:54:29;;;;;;;7.57;3.10;;;;;;;;;;5046970;28;20188;-83
2022/12/24 07:56:54;;;;;;;9.17;3.33;;;;;;;;;;5047690;28;20232;-82
2022/12/24 07:59:20;;;;;;;7.17;2.60;;;;;;;;;;5048207;28;20186;-82
2022/12/24 08:01:45;;;;;;;13.90;3.40;;;;;;;;;;5049920;28;20185;-82
2022/12/24 08:04:10;;;;;;;14.80;3.17;;;;;;;;;;5044903;28;20250;-83
2022/12/24 08:06:36;;;;;;;8.23;2.43;;;;;;;;;;5045757;28;20181;-83
2022/12/24 08:09:01;;;;;;;7.40;2.80;;;;;;;;;;5047974;28;20190;-82
2022/12/24 08:11:26;;;;;;;13.33;3.43;;;;;;;;;;5046730;28;20255;-83
2022/12/24 08:13:51;;;;;;;8.63;3.33;;;;;;;;;;5045687;28;20177;-83
2022/12/24 08:16:17;;;;;;;12.63;3.80;;;;;;;;;;5044571;28;20175;-82
2022/12/24 08:18:42;;;;;;;11.97;4.10;;;;;;;;;;5044144;28;20199;-82
2022/12/24 08:21:08;;;;;;;13.80;3.10;;;;;;;;;;5037954;28;20182;-83
2022/12/24 08:23:33;;;;;;;12.60;3.43;;;;;;;;;;5047780;28;20272;-83
2022/12/24 08:25:58;;;;;;;10.73;3.03;;;;;;;;;;5065770;28;20268;-82
2022/12/24 08:28:24;;;;;;;9.00;3.57;;;;;;;;;;5039627;28;20301;-83
2022/12/24 08:30:49;;;;;;;13.30;3.77;;;;;;;;;;5051282;28;20179;-83
2022/12/24 08:33:15;;;;;;;13.03;5.00;;;;;;;;;;5049153;28;20172;-83
2022/12/24 08:35:40;;;;;;;11.63;3.40;;;;;;;;;;5046204;28;20228;-82
2022/12/24 08:38:05;;;;;;;10.57;4.00;;;;;;;;;;5048952;28;20185;-82
2022/12/24 08:40:31;;;;;;;9.83;3.63;;;;;;;;;;5045439;28;20174;-81
2022/12/24 08:42:56;;;;;;;9.77;3.27;;;;;;;;;;5046535;28;20217;-82
2022/12/24 08:45:21;;;;;;;15.07;4.07;;;;;;;;;;5045368;28;20276;-82
2022/12/24 08:47:46;;;;;;;17.27;3.87;;;;;;;;;;5041289;28;20304;-83
2022/12/24 08:50:12;;;;;;;10.50;2.50;;;;;;;;;;5042991;28;20262;-82
2022/12/24 08:52:37;;;;;;;8.37;3.30;;;;;;;;;;5050320;28;20188;-83
2022/12/24 08:55:02;;;;;;;14.40;3.87;;;;;;;;;;5042746;28;20206;-83
2022/12/24 08:57:28;;;;;;;12.13;4.17;;;;;;;;;;5042040;28;20185;-82
2022/12/24 08:59:53;;;;;;;15.37;3.47;;;;;;;;;;5045787;28;20185;-83
2022/12/24 09:02:18;;;;;;;12.83;3.10;;;;;;;;;;5046901;28;20205;-82
2022/12/24 09:04:44;;;;;;;12.10;4.03;;;;;;;;;;5042613;28;20170;-83
2022/12/24 09:07:09;;;;;;;11.93;3.03;;;;;;;;;;5045709;28;20174;-83
2022/12/24 09:09:34;;;;;;;11.10;3.57;;;;;;;;;;5043837;28;20229;-82
2022/12/24 09:12:00;;;;;;;9.47;2.57;;;;;;;;;;5043861;28;20212;-82
2022/12/24 09:14:25;;;;;;;15.43;7.60;;;;;;;;;;5042350;28;20194;-82
2022/12/24 09:16:50;;;;;;;14.47;3.93;;;;;;;;;;5041994;28;20189;-83
2022/12/24 09:19:15;;;;;;;12.37;3.50;;;;;;;;;;5039855;28;20213;-82
2022/12/24 09:21:41;;;;;;;11.53;3.00;;;;;;;;;;5039014;28;20248;-82
2022/12/24 09:24:06;;;;;;;9.07;2.67;;;;;;;;;;5041285;28;20185;-83
2022/12/24 09:26:31;;;;;;;12.40;3.20;;;;;;;;;;5049052;28;20201;-83
2022/12/24 09:28:57;;;;;;;12.13;3.30;;;;;;;;;;5042654;28;20209;-82
2022/12/24 09:31:22;;;;;;;10.63;3.40;;;;;;;;;;5049651;28;20267;-82
2022/12/24 09:33:49;;;;;;;12.13;3.07;;;;;;;;;;5048042;28;20294;-82
2022/12/24 09:36:14;;;;;;;17.30;7.67;;;;;;;;;;5046982;28;20218;-83
2022/12/24 09:38:39;;;;;;;17.33;4.77;;;;;;;;;;5042342;28;20239;-82
2022/12/24 09:41:23;;;;;;;15.97;4.90;;;;;;;;;;5049879;28;20226;-82
2022/12/24 09:43:53;;;;;;;7.13;4.20;;;;;;;;;;5046559;28;20182;-83
2022/12/24 09:46:25;;;;;;;12.20;3.93;;;;;;;;;;5046643;28;20188;-82
2022/12/24 09:48:53;;;;;;;19.10;3.73;;;;;;;;;;5042809;28;20239;-83
2022/12/24 09:51:18;;;;;;;9.37;2.80;;;;;;;;;;5045871;28;20193;-82
2022/12/24 09:53:44;;;;;;;13.17;4.83;;;;;;;;;;5047882;28;20170;-82
2022/12/24 09:56:32;;;;;;;12.80;5.03;;;;;;;;;;5048071;28;20229;-83
2022/12/24 09:59:02;;;;;;;11.27;5.33;;;;;;;;;;5030409;28;20382;-82
2022/12/24 10:01:31;;;;;;;10.43;4.20;;;;;;;;;;5038314;28;20288;-83
2022/12/24 10:03:59;;;;;;;12.00;4.03;;;;;;;;;;5068149;28;20182;-82
2022/12/24 10:06:29;;;;;;;10.70;3.87;;;;;;;;;;5065173;28;20183;-82
2022/12/24 10:09:09;;;;;;;11.27;4.10;;;;;;;;;;5043980;28;20220;-82
2022/12/24 10:11:41;;;;;;;13.07;3.73;;;;;;;;;;5043454;28;20220;-83
2022/12/24 10:14:18;;;;;;;8.90;3.97;;;;;;;;;;5048071;28;20173;-83
2022/12/24 10:16:52;;;;;;;15.30;4.27;;;;;;;;;;5052311;28;20174;-83
2022/12/24 10:19:24;;;;;;;12.43;3.53;;;;;;;;;;5052209;28;20206;-82
2022/12/24 10:21:52;;;;;;;9.33;3.13;;;;;;;;;;5050742;28;20244;-82
2022/12/24 10:24:17;;;;;;;13.03;3.50;;;;;;;;;;5043884;28;20175;-83
2022/12/24 10:26:44;;;;;;;9.93;4.13;;;;;;;;;;5040817;28;20179;-82
2022/12/24 10:29:30;;;;;;;9.13;3.50;;;;;;;;;;5040859;28;20305;-83
2022/12/24 10:31:59;;;;;;;12.37;3.47;;;;;;;;;;5050416;28;20267;-83
2022/12/24 10:34:27;;;;;;;14.27;4.70;;;;;;;;;;5046697;28;20176;-82
2022/12/24 10:36:52;;;;;;;12.00;3.93;;;;;;;;;;5043316;28;20307;-83
2022/12/24 10:39:19;;;;;;;12.83;4.00;;;;;;;;;;5049652;28;20267;-82
2022/12/24 10:41:46;;;;;;;12.07;4.77;;;;;;;;;;5047280;28;20213;-82
2022/12/24 10:44:15;;;;;;;10.27;3.70;;;;;;;;;;5047933;28;20277;-82
2022/12/24 10:46:41;;;;;;;13.67;3.53;;;;;;;;;;5051971;28;20265;-82
2022/12/24 10:49:10;;;;;;;11.53;4.20;;;;;;;;;;5046524;28;20291;-83
2022/12/24 10:51:54;;;;;;;10.80;4.13;;;;;;;;;;5051365;28;20178;-82
2022/12/24 10:54:24;;;;;;;9.43;2.60;;;;;;;;;;5043275;28;20193;-82
2022/12/24 10:56:51;;;;;;;9.80;3.23;;;;;;;;;;5050568;28;20169;-82
2022/12/24 10:59:28;;;;;;;11.63;3.33;;;;;;;;;;5045648;28;20174;-82
2022/12/24 11:01:55;;;;;;;8.20;2.67;;;;;;;;;;5044728;28;20177;-82
2022/12/24 11:04:25;;;;;;;11.87;2.80;;;;;;;;;;5046725;28;20195;-82
2022/12/24 11:06:57;;;;;;;13.00;3.13;;;;;;;;;;5046988;28;20272;-82
2022/12/24 11:09:28;;;;;;;9.30;2.90;;;;;;;;;;5046039;28;20266;-82
2022/12/24 11:11:54;;;;;;;7.40;2.77;;;;;;;;;;5042465;28;20177;-82
2022/12/24 11:14:21;;;;;;;6.93;2.90;;;;;;;;;;5050685;28;20217;-83
2022/12/24 11:16:56;;;;;;;11.33;3.73;;;;;;;;;;5046966;28;20165;-82
2022/12/24 11:19:27;;;;;;;17.33;4.33;;;;;;;;;;5048786;28;20268;-82
2022/12/24 11:22:07;;;;;;;12.63;3.57;;;;;;;;;;5047476;28;20212;-82
2022/12/24 11:24:33;;;;;;;13.47;3.40;;;;;;;;;;5048749;28;20189;-82
2022/12/24 11:27:18;;;;;;;10.90;4.17;;;;;;;;;;5043528;28;20179;-83
2022/12/24 11:29:44;;;;;;;13.33;3.67;;;;;;;;;;5046419;28;20235;-82
2022/12/24 11:32:15;;;;;;;11.17;2.93;;;;;;;;;;5048411;28;20205;-83
2022/12/24 11:34:42;;;;;;;12.90;3.07;;;;;;;;;;5047193;28;20178;-82
2022/12/24 11:37:23;;;;;;;16.70;3.50;;;;;;;;;;5049413;28;20212;-82
2022/12/24 11:39:49;;;;;;;10.27;2.87;;;;;;;;;;5047694;28;20181;-82
2022/12/24 11:42:35;;;;;;;13.63;4.00;;;;;;;;;;5048113;28;20174;-83
2022/12/24 11:45:03;;;;;;;10.47;3.13;;;;;;;;;;5046498;28;20195;-82
2022/12/24 11:47:33;;;;;;;7.43;3.10;;;;;;;;;;5059461;28;20183;-82
2022/12/24 11:50:17;;;;;;;10.53;3.83;;;;;;;;;;5046467;28;20186;-82
2022/12/24 11:52:44;;;;;;;7.93;2.90;;;;;;;;;;5046747;28;20178;-82
2022/12/24 11:55:12;;;;;;;7.77;2.80;;;;;;;;;;5048588;28;20181;-82
2022/12/24 11:57:42;;;;;;;14.80;3.00;;;;;;;;;;5040461;28;24512;-82
2022/12/24 12:00:09;;;;;;;14.93;3.80;;;;;;;;;;5041363;28;20170;-82
2022/12/24 12:02:40;;;;;;;13.47;3.80;;;;;;;;;;5041384;28;20191;-82
2022/12/24 12:05:10;;;;;;;8.20;2.70;;;;;;;;;;5047335;28;20272;-82
2022/12/24 12:07:36;;;;;;;13.37;3.00;;;;;;;;;;5042166;28;20175;-82
2022/12/24 12:10:16;;;;;;;8.63;2.50;;;;;;;;;;5040939;28;20228;-82
2022/12/24 12:12:44;;;;;;;11.27;3.13;;;;;;;;;;5047514;28;20165;-82
2022/12/24 12:15:09;;;;;;;12.47;3.40;;;;;;;;;;5043705;28;20166;-82
2022/12/24 12:17:38;;;;;;;11.80;2.60;;;;;;;;;;5045830;28;20201;-82
2022/12/24 12:20:15;;;;;;;13.23;3.17;;;;;;;;;;5040359;28;20188;-82
2022/12/24 12:22:44;;;;;;;9.97;2.93;;;;;;;;;;5045960;28;20186;-82
2022/12/24 12:25:17;;;;;;;12.17;3.73;;;;;;;;;;5046663;28;20174;-82
2022/12/24 12:27:44;;;;;;;15.03;3.33;;;;;;;;;;5046792;28;20272;-82
2022/12/24 12:30:14;;;;;;;10.80;3.50;;;;;;;;;;5046754;28;20185;-82
2022/12/24 12:33:01;;;;;;;6.97;3.10;;;;;;;;;;5045155;28;20182;-82
2022/12/24 12:35:38;;;;;;;8.97;4.27;;;;;;;;;;5044074;28;20186;-82
2022/12/24 12:38:05;;;;;;;9.40;3.03;;;;;;;;;;5060944;28;20186;-82
2022/12/24 12:40:36;;;;;;;15.07;3.27;;;;;;;;;;5043707;28;20192;-82
2022/12/24 12:43:10;;;;;;;8.70;3.07;;;;;;;;;;5044275;28;20213;-82
2022/12/24 12:45:43;;;;;;;10.80;3.07;;;;;;;;;;5038086;28;20209;-82
2022/12/24 12:48:34;;;;;;;8.00;2.63;;;;;;;;;;5046344;28;20205;-83
2022/12/24 12:50:59;;;;;;;8.63;2.70;;;;;;;;;;5015406;28;20269;-82
2022/12/24 12:53:43;;;;;;;7.30;2.73;;;;;;;;;;5039981;28;20269;-82
2022/12/24 12:56:16;;;;;;;10.00;2.97;;;;;;;;;;5041155;28;20185;-82
2022/12/24 12:58:57;;;;;;;10.20;3.00;;;;;;;;;;5051318;28;20197;-82
2022/12/24 13:01:43;;;;;;;7.90;3.10;;;;;;;;;;5050101;28;20185;-83
2022/12/24 13:04:27;;;;;;;10.53;3.13;;;;;;;;;;5035080;28;20190;-83
2022/12/24 13:07:11;;;;;;;6.93;2.97;;;;;;;;;;5046298;28;20265;-83
2022/12/24 13:09:36;;;;;;;10.87;2.97;;;;;;;;;;5049191;28;20348;-82
2022/12/24 13:12:11;;;;;;;7.30;2.87;;;;;;;;;;5048797;28;20293;-82
2022/12/24 13:14:43;;;;;;;7.03;2.53;;;;;;;;;;5044978;28;20174;-82
2022/12/24 13:17:12;;;;;;;7.50;2.97;;;;;;;;;;5051947;28;20178;-83
2022/12/24 13:19:46;;;;;;;9.30;2.87;;;;;;;;;;5052341;28;20194;-82
2022/12/24 13:22:16;;;;;;;6.93;2.80;;;;;;;;;;5065153;28;20186;-82
2022/12/24 13:24:46;;;;;;;8.53;4.50;;;;;;;;;;5049607;28;20178;-83
2022/12/24 13:27:20;;;;;;;42.33;20.20;;;;;;;;;;5047543;28;20190;-83
2022/12/24 13:30:11;;;;;;;22.07;6.53;;;;;;;;;;5050530;28;20218;-83
2022/12/24 13:32:39;;;;;;;16.77;7.57;;;;;;;;;;5037155;28;20268;-82
2022/12/24 13:35:19;;;;;;;13.43;8.53;;;;;;;;;;5052069;28;20297;-83
2022/12/24 13:37:45;;;;;;;7.03;2.67;;;;;;;;;;5066512;28;20324;-82
2022/12/24 13:40:10;;;;;;;10.07;4.00;;;;;;;;;;5047611;28;20271;-83
2022/12/24 13:42:45;;;;;;;12.37;6.87;;;;;;;;;;5042239;28;20189;-83
2022/12/24 13:45:28;;;;;;;7.13;2.97;;;;;;;;;;5049127;28;20166;-83
2022/12/24 13:47:54;;;;;;;9.97;5.53;;;;;;;;;;5043587;28;20238;-82
2022/12/24 13:50:22;;;;;;;11.60;3.60;;;;;;;;;;5054187;28;20269;-82
2022/12/24 13:52:51;;;;;;;11.17;3.63;;;;;;;;;;5046167;28;20166;-82
2022/12/24 13:55:17;;;;;;;10.70;4.00;;;;;;;;;;5054791;28;20171;-83
2022/12/24 13:57:53;;;;;;;5.27;2.77;;;;;;;;;;5054563;28;20186;-83
2022/12/24 14:00:24;;;;;;;11.43;3.37;;;;;;;;;;5044726;28;20198;-82
2022/12/24 14:02:55;;;;;;;10.50;3.50;;;;;;;;;;5050618;28;20174;-83
2022/12/24 14:05:36;;;;;;;10.27;4.17;;;;;;;;;;5050499;28;20197;-83
2022/12/24 14:08:03;;;;;;;8.13;2.53;;;;;;;;;;5049795;28;20285;-83
2022/12/24 14:10:30;;;;;;;7.73;2.63;;;;;;;;;;5067536;28;20217;-83
2022/12/24 14:12:55;;;;;;;7.23;2.77;;;;;;;;;;5045824;28;20209;-83
2022/12/24 14:15:40;;;;;;;9.67;2.77;;;;;;;;;;5044325;28;20205;-82
2022/12/24 14:18:05;;;;;;;8.57;3.33;;;;;;;;;;5042978;28;20198;-83
2022/12/24 14:20:31;;;;;;;8.30;2.50;;;;;;;;;;5040816;28;20182;-82
2022/12/24 14:22:57;;;;;;;9.47;2.50;;;;;;;;;;5050499;28;20190;-83
2022/12/24 14:25:22;;;;;;;12.57;4.43;;;;;;;;;;5052028;28;20182;-83
2022/12/24 14:27:53;;;;;;;6.47;3.00;;;;;;;;;;5046129;28;20178;-83
2022/12/24 14:30:23;;;;;;;23.57;11.47;;;;;;;;;;5047789;28;20212;-83
2022/12/24 14:32:49;;;;;;;5.43;2.27;;;;;;;;;;5052935;28;20190;-83
2022/12/24 14:35:17;;;;;;;12.03;3.53;;;;;;;;;;5051240;28;20175;-83
2022/12/24 14:38:01;;;;;;;5.33;2.60;;;;;;;;;;5045952;28;20227;-82
2022/12/24 14:40:27;;;;;;;6.50;2.90;;;;;;;;;;5046257;28;20191;-82
2022/12/24 14:43:17;;;;;;;7.00;3.40;;;;;;;;;;5046259;28;20168;-83
2022/12/24 14:45:45;;;;;;;8.87;2.97;;;;;;;;;;5049041;28;20189;-82
2022/12/24 14:48:17;;;;;;;11.17;3.20;;;;;;;;;;5047903;28;20276;-83
2022/12/24 14:50:57;;;;;;;8.97;3.27;;;;;;;;;;5049519;28;20191;-82